Time;durP1;ratioP1;P1;durP2;ratioP2;P2;SDS_P1;SDS_P2;PMS_P1;PMS_P2;Temp;Humidity;BMP_temperature;BMP_pressure;BME280_temperature;BME280_humidity;BME280_pressure;Samples;Min_cycle;Max_cycle;Signal;HPM_P1;HPM_P2
2022/06/26 00:01:49;;;;;;;4.10;3.80;;;21.00;99.90;;;;;;5116123;28;20778;-58
2022/06/26 00:04:16;;;;;;;3.80;3.50;;;20.90;99.90;;;;;;5115789;28;20933;-58
2022/06/26 00:06:43;;;;;;;4.10;3.60;;;20.90;99.90;;;;;;5115570;28;20929;-58
2022/06/26 00:09:11;;;;;;;7.23;3.70;;;20.90;99.90;;;;;;5115652;28;20449;-58
2022/06/26 00:11:38;;;;;;;4.53;4.13;;;20.90;99.90;;;;;;5115230;28;20423;-58
2022/06/26 00:14:07;;;;;;;7.33;4.33;;;20.90;99.90;;;;;;5115559;28;20987;-58
2022/06/26 00:16:34;;;;;;;4.90;4.50;;;21.00;99.90;;;;;;5115747;28;20949;-58
2022/06/26 00:19:01;;;;;;;5.00;4.60;;;21.00;99.90;;;;;;5115688;28;20455;-58
2022/06/26 00:21:28;;;;;;;5.87;4.27;;;20.90;99.90;;;;;;5115622;28;20829;-58
2022/06/26 00:23:55;;;;;;;4.70;4.30;;;20.70;99.90;;;;;;5115635;28;20439;-58
2022/06/26 00:26:23;;;;;;;4.57;4.17;;;20.70;99.90;;;;;;5115131;28;20780;-56
2022/06/26 00:28:50;;;;;;;4.77;4.37;;;20.80;99.90;;;;;;5115225;28;20442;-57
2022/06/26 00:31:18;;;;;;;4.97;4.57;;;20.80;99.90;;;;;;5115166;28;20448;-57
2022/06/26 00:33:45;;;;;;;5.50;4.97;;;20.90;99.90;;;;;;5115141;28;20478;-57
2022/06/26 00:36:13;;;;;;;5.50;5.00;;;20.90;99.90;;;;;;5115323;28;20474;-57
2022/06/26 00:38:40;;;;;;;4.90;4.50;;;20.90;99.90;;;;;;5115070;28;20479;-58
2022/06/26 00:41:07;;;;;;;4.43;3.50;;;21.00;99.90;;;;;;5114930;28;21052;-57
2022/06/26 00:43:34;;;;;;;4.40;3.30;;;21.10;99.90;;;;;;5115438;28;20945;-57
2022/06/26 00:46:01;;;;;;;4.43;3.50;;;21.10;99.90;;;;;;5115239;28;20522;-57
2022/06/26 00:48:30;;;;;;;3.30;2.90;;;21.30;99.90;;;;;;5115179;27;20473;-57
2022/06/26 00:50:57;;;;;;;4.13;3.30;;;21.30;99.90;;;;;;5115023;28;20890;-57
2022/06/26 00:53:24;;;;;;;3.63;2.87;;;21.40;99.90;;;;;;5115464;28;20478;-57
2022/06/26 00:55:52;;;;;;;2.87;2.67;;;21.50;99.90;;;;;;5114852;28;20478;-57
2022/06/26 00:58:19;;;;;;;2.73;2.47;;;21.60;99.90;;;;;;5114804;28;20431;-57
2022/06/26 01:00:47;;;;;;;3.13;2.27;;;21.70;99.90;;;;;;5114836;28;20852;-57
2022/06/26 01:03:14;;;;;;;3.50;2.20;;;21.60;99.90;;;;;;5114567;28;20541;-57
2022/06/26 01:05:43;;;;;;;2.50;2.30;;;21.60;99.90;;;;;;5115016;28;20530;-57
2022/06/26 01:08:10;;;;;;;2.70;2.50;;;21.60;99.90;;;;;;5114391;28;20801;-57
2022/06/26 01:10:38;;;;;;;2.50;2.30;;;21.60;99.90;;;;;;5114551;28;20447;-57
2022/06/26 01:13:06;;;;;;;4.97;2.80;;;21.60;99.90;;;;;;5114020;28;20486;-57
2022/06/26 01:15:34;;;;;;;2.60;2.40;;;21.50;99.90;;;;;;5114600;28;20810;-57
2022/06/26 01:18:01;;;;;;;4.33;2.70;;;21.50;99.90;;;;;;5114282;28;20450;-57
2022/06/26 01:20:29;;;;;;;3.77;2.83;;;21.50;99.90;;;;;;5114343;28;20447;-57
2022/06/26 01:23:06;;;;;;;2.90;2.70;;;21.50;99.90;;;;;;5113894;28;20538;-57
2022/06/26 01:25:44;;;;;;;2.57;2.37;;;21.50;99.90;;;;;;5114118;28;20769;-57
2022/06/26 01:28:12;;;;;;;2.87;2.67;;;21.50;99.90;;;;;;5114468;28;20451;-57
2022/06/26 01:30:39;;;;;;;3.13;2.70;;;21.50;99.90;;;;;;5113895;28;20550;-57
2022/06/26 01:33:08;;;;;;;3.90;2.60;;;21.50;99.90;;;;;;5114341;28;20813;-58
2022/06/26 01:35:35;;;;;;;2.53;2.33;;;21.60;99.90;;;;;;5113841;28;20532;-58
2022/06/26 01:38:12;;;;;;;3.20;2.50;;;21.60;99.90;;;;;;5114009;28;20929;-58
2022/06/26 01:40:40;;;;;;;3.27;2.97;;;21.60;99.90;;;;;;5113733;28;20465;-58
2022/06/26 01:43:08;;;;;;;3.30;2.77;;;21.50;99.90;;;;;;5114138;28;20549;-58
2022/06/26 01:45:41;;;;;;;3.70;3.43;;;21.50;99.90;;;;;;5113956;28;21018;-58
2022/06/26 01:48:08;;;;;;;3.07;2.87;;;21.60;99.90;;;;;;5114159;28;20459;-58
2022/06/26 01:50:35;;;;;;;2.80;2.60;;;21.50;99.90;;;;;;5113855;28;20472;-58
2022/06/26 01:53:03;;;;;;;2.93;2.50;;;21.50;99.90;;;;;;5113792;28;20538;-57
2022/06/26 01:55:31;;;;;;;3.10;2.57;;;21.50;99.90;;;;;;5113346;28;21041;-57
2022/06/26 01:58:01;;;;;;;2.77;2.57;;;21.40;99.90;;;;;;5114081;28;20447;-58
2022/06/26 02:00:29;;;;;;;3.60;2.83;;;21.40;99.90;;;;;;5113483;28;20496;-57
2022/06/26 02:02:56;;;;;;;2.80;2.53;;;21.40;99.90;;;;;;5113644;28;20447;-57
2022/06/26 02:05:24;;;;;;;6.03;2.67;;;21.40;99.90;;;;;;5113760;28;20447;-57
2022/06/26 02:07:51;;;;;;;2.90;2.70;;;21.30;99.90;;;;;;5113900;28;20450;-57
2022/06/26 02:15:51;;;;;;;5.00;2.93;;;21.10;99.90;;;;;;5113598;28;20508;-57
2022/06/26 02:18:19;;;;;;;3.50;2.60;;;21.10;99.90;;;;;;5113363;28;20431;-57
2022/06/26 02:20:46;;;;;;;2.83;2.63;;;21.10;99.90;;;;;;5113398;28;20446;-57
2022/06/26 02:23:14;;;;;;;3.37;3.07;;;21.00;99.90;;;;;;5113140;28;20952;-57
2022/06/26 02:25:42;;;;;;;3.00;2.80;;;21.00;99.90;;;;;;5113346;28;20814;-57
2022/06/26 02:28:11;;;;;;;3.60;2.90;;;21.00;99.90;;;;;;5113215;28;20478;-57
2022/06/26 02:30:38;;;;;;;3.70;3.30;;;21.00;99.90;;;;;;5113647;28;20470;-57
2022/06/26 02:33:07;;;;;;;7.00;3.10;;;20.90;99.90;;;;;;5113531;28;20478;-57
2022/06/26 02:35:35;;;;;;;3.03;2.80;;;20.90;99.90;;;;;;5117124;28;20999;-58
2022/06/26 02:38:02;;;;;;;3.23;2.77;;;20.90;99.90;;;;;;5117459;28;20782;-57
2022/06/26 02:40:31;;;;;;;2.90;2.60;;;21.00;99.90;;;;;;5117893;28;20557;-57
2022/06/26 02:42:58;;;;;;;2.83;2.63;;;21.00;99.90;;;;;;5117256;28;20541;-57
2022/06/26 02:45:27;;;;;;;3.50;3.20;;;20.90;99.90;;;;;;5117645;28;20533;-57
2022/06/26 02:47:54;;;;;;;3.57;2.97;;;20.90;99.90;;;;;;5117443;28;20472;-57
2022/06/26 02:50:21;;;;;;;3.20;2.60;;;20.90;99.90;;;;;;5117482;28;20555;-58
2022/06/26 02:52:48;;;;;;;3.93;2.50;;;21.00;99.90;;;;;;5117444;28;20530;-58
2022/06/26 02:55:15;;;;;;;3.80;3.50;;;20.90;99.90;;;;;;5116962;28;20573;-58
2022/06/26 02:57:43;;;;;;;3.67;3.30;;;20.90;99.90;;;;;;5117376;28;20481;-58
2022/06/26 03:00:12;;;;;;;2.40;2.20;;;20.80;99.90;;;;;;5117220;28;20462;-57
2022/06/26 03:02:41;;;;;;;3.80;3.20;;;20.70;99.90;;;;;;5117282;28;20482;-57
2022/06/26 03:05:09;;;;;;;4.40;3.00;;;20.70;99.90;;;;;;5117256;28;20522;-57
2022/06/26 03:07:36;;;;;;;3.33;3.13;;;20.60;99.90;;;;;;5116893;28;20803;-57
2022/06/26 03:10:04;;;;;;;3.63;2.20;;;20.60;99.90;;;;;;5116644;28;21052;-58
2022/06/26 03:12:31;;;;;;;3.30;2.63;;;20.60;99.90;;;;;;5116673;28;20513;-58
2022/06/26 03:14:58;;;;;;;3.07;2.40;;;20.60;99.90;;;;;;5116885;28;20488;-58
2022/06/26 03:17:26;;;;;;;3.60;2.83;;;20.50;99.90;;;;;;5116925;28;20442;-57
2022/06/26 03:19:54;;;;;;;2.43;2.23;;;20.60;99.90;;;;;;5116447;28;20503;-58
2022/06/26 03:22:21;;;;;;;3.20;2.90;;;20.60;99.90;;;;;;5116932;28;20442;-58
2022/06/26 03:24:48;;;;;;;2.73;2.53;;;20.60;99.90;;;;;;5116652;28;20874;-57
2022/06/26 03:27:16;;;;;;;3.40;2.90;;;20.60;99.90;;;;;;5116762;28;20442;-57
2022/06/26 03:29:43;;;;;;;2.93;2.70;;;20.60;99.90;;;;;;5116587;28;20490;-58
2022/06/26 03:32:10;;;;;;;2.90;2.60;;;20.60;99.90;;;;;;5116745;28;20577;-57
2022/06/26 03:34:37;;;;;;;3.60;2.63;;;20.50;99.90;;;;;;5116497;28;20446;-57
2022/06/26 03:37:06;;;;;;;3.07;2.30;;;20.50;99.90;;;;;;5116348;28;20533;-57
2022/06/26 03:39:36;;;;;;;2.77;2.57;;;20.50;99.90;;;;;;5116058;27;20561;-57
2022/06/26 03:42:07;;;;;;;2.63;2.43;;;20.60;99.90;;;;;;5116137;28;21000;-57
2022/06/26 03:44:37;;;;;;;3.93;2.73;;;20.60;99.90;;;;;;5115549;28;20534;-57
2022/06/26 03:47:05;;;;;;;4.93;2.20;;;20.70;99.90;;;;;;5116224;28;20518;-57
2022/06/26 03:49:35;;;;;;;2.23;2.03;;;20.60;99.90;;;;;;5115820;28;20474;-57
2022/06/26 03:52:07;;;;;;;2.47;2.27;;;20.70;99.90;;;;;;5116084;28;20503;-57
2022/06/26 03:54:35;;;;;;;2.67;2.47;;;20.60;99.90;;;;;;5115721;28;20485;-57
2022/06/26 03:57:04;;;;;;;2.90;2.63;;;20.60;99.90;;;;;;5115912;28;20449;-58
2022/06/26 03:59:33;;;;;;;2.50;2.30;;;20.60;99.90;;;;;;5115674;28;21393;-58
2022/06/26 04:02:00;;;;;;;2.60;2.40;;;20.60;99.90;;;;;;5115835;28;20541;-58
2022/06/26 04:04:30;;;;;;;2.17;1.97;;;20.60;99.90;;;;;;5115689;28;20542;-57
2022/06/26 04:07:00;;;;;;;8.47;2.20;;;20.70;99.90;;;;;;5115950;28;20495;-58
2022/06/26 04:09:29;;;;;;;3.03;2.30;;;20.70;99.90;;;;;;5115819;28;20896;-58
2022/06/26 04:11:56;;;;;;;2.83;2.27;;;20.60;99.90;;;;;;5115649;28;20479;-58
2022/06/26 04:14:23;;;;;;;2.57;2.37;;;20.60;99.90;;;;;;5115526;28;20449;-58
2022/06/26 04:16:50;;;;;;;2.63;2.30;;;20.50;99.90;;;;;;5115522;28;20513;-58
2022/06/26 04:19:17;;;;;;;3.63;2.40;;;20.60;99.90;;;;;;5115615;28;20553;-58
2022/06/26 04:21:45;;;;;;;2.00;1.90;;;20.70;99.90;;;;;;5115421;28;20449;-58
2022/06/26 04:24:12;;;;;;;2.20;2.00;;;20.70;99.90;;;;;;5115561;28;20495;-58
2022/06/26 04:26:40;;;;;;;3.10;1.70;;;20.70;99.90;;;;;;5115208;28;20537;-58
2022/06/26 04:29:08;;;;;;;1.90;1.80;;;20.70;99.90;;;;;;5115167;28;20599;-58
2022/06/26 04:31:35;;;;;;;2.50;2.30;;;20.70;99.90;;;;;;5115293;28;20972;-58
2022/06/26 04:34:02;;;;;;;3.50;2.00;;;20.80;99.90;;;;;;5115080;28;20537;-58
2022/06/26 04:36:29;;;;;;;2.60;2.20;;;20.80;99.90;;;;;;5115133;28;20561;-58
2022/06/26 04:38:56;;;;;;;1.93;1.80;;;20.70;99.90;;;;;;5115166;28;20475;-58
2022/06/26 04:41:34;;;;;;;4.17;1.90;;;20.70;99.90;;;;;;5115013;28;20454;-58
2022/06/26 04:44:05;;;;;;;2.30;2.10;;;20.70;99.90;;;;;;5115075;28;20492;-58
2022/06/26 04:46:33;;;;;;;2.43;2.23;;;20.70;99.90;;;;;;5115034;28;20427;-58
2022/06/26 04:49:00;;;;;;;3.03;2.53;;;20.60;99.90;;;;;;5115088;28;20525;-59
2022/06/26 04:51:27;;;;;;;2.07;1.93;;;20.70;99.90;;;;;;5115216;28;20534;-57
2022/06/26 04:53:55;;;;;;;3.13;2.83;;;20.70;99.90;;;;;;5114719;28;20442;-57
2022/06/26 04:56:22;;;;;;;2.67;2.40;;;20.60;99.90;;;;;;5114112;28;20520;-57
2022/06/26 04:58:49;;;;;;;1.87;1.77;;;20.60;99.90;;;;;;5114551;28;20453;-57
2022/06/26 05:01:18;;;;;;;2.63;2.30;;;20.70;99.90;;;;;;5114687;28;20529;-57
2022/06/26 05:03:45;;;;;;;2.87;1.90;;;20.80;99.90;;;;;;5114518;28;20537;-57
2022/06/26 05:06:13;;;;;;;1.77;1.67;;;;;;;;;;5114547;28;20478;-57
2022/06/26 05:08:40;;;;;;;2.63;2.43;;;21.00;99.90;;;;;;5114707;28;20446;-57
2022/06/26 05:11:07;;;;;;;2.50;2.30;;;21.00;99.90;;;;;;5114758;28;20886;-57
2022/06/26 05:13:34;;;;;;;2.40;2.20;;;21.10;99.90;;;;;;5113933;28;20914;-57
2022/06/26 05:16:02;;;;;;;2.30;2.10;;;21.20;99.90;;;;;;5114390;28;20518;-57
2022/06/26 05:18:30;;;;;;;2.30;2.10;;;21.20;99.90;;;;;;5114287;28;20537;-57
2022/06/26 05:20:58;;;;;;;3.00;2.40;;;21.20;99.90;;;;;;5114578;28;20494;-56
2022/06/26 05:23:25;;;;;;;2.30;2.10;;;21.20;99.90;;;;;;5114566;28;20521;-57
2022/06/26 05:25:52;;;;;;;2.90;2.43;;;21.10;99.90;;;;;;5114341;28;20451;-57
2022/06/26 05:28:20;;;;;;;3.00;2.20;;;21.10;99.90;;;;;;5114205;28;20971;-57
2022/06/26 05:30:47;;;;;;;5.00;2.80;;;21.20;99.90;;;;;;5114252;28;20469;-57
2022/06/26 05:33:14;;;;;;;3.27;2.20;;;21.10;99.90;;;;;;5114413;28;20497;-57
2022/06/26 05:35:43;;;;;;;2.60;2.40;;;21.10;99.90;;;;;;5113999;28;20470;-57
2022/06/26 05:38:10;;;;;;;3.03;2.00;;;21.20;99.90;;;;;;5114326;28;20530;-57
2022/06/26 05:40:37;;;;;;;2.53;2.33;;;21.20;99.90;;;;;;5113784;28;20558;-57
2022/06/26 05:43:05;;;;;;;2.60;2.40;;;21.20;99.90;;;;;;5114366;28;20459;-57
2022/06/26 05:45:32;;;;;;;2.03;1.93;;;21.20;99.90;;;;;;5113732;28;20921;-57
2022/06/26 05:47:59;;;;;;;2.53;2.33;;;21.30;99.90;;;;;;5113842;28;20534;-57
2022/06/26 05:50:27;;;;;;;3.00;2.67;;;21.40;99.90;;;;;;5113633;28;20498;-57
2022/06/26 05:52:56;;;;;;;2.50;2.30;;;21.50;99.90;;;;;;5114041;28;20449;-57
2022/06/26 05:55:23;;;;;;;4.23;3.07;;;21.50;99.90;;;;;;5113342;28;21008;-57
2022/06/26 05:57:50;;;;;;;2.27;2.07;;;21.50;99.90;;;;;;5114046;28;20481;-57
2022/06/26 06:00:17;;;;;;;2.90;2.20;;;21.30;99.90;;;;;;5113779;28;20823;-57
2022/06/26 06:02:45;;;;;;;3.40;2.50;;;21.20;99.90;;;;;;5113991;28;20491;-57
2022/06/26 06:05:12;;;;;;;2.10;1.90;;;21.30;99.90;;;;;;5113525;28;20951;-57
2022/06/26 06:07:39;;;;;;;5.90;2.30;;;21.40;99.90;;;;;;5113429;28;20454;-57
2022/06/26 06:10:09;;;;;;;2.67;2.33;;;21.40;99.90;;;;;;5113644;28;20505;-57
2022/06/26 06:12:37;;;;;;;2.03;1.83;;;21.50;99.90;;;;;;5113141;28;20463;-57
2022/06/26 06:15:05;;;;;;;2.27;1.80;;;21.50;99.90;;;;;;5113316;28;20850;-57
2022/06/26 06:17:40;;;;;;;1.70;1.60;;;21.50;99.90;;;;;;5113343;28;21075;-57
2022/06/26 06:20:11;;;;;;;1.57;1.47;;;21.40;99.90;;;;;;5113244;28;20471;-57
2022/06/26 06:22:39;;;;;;;1.93;1.73;;;21.40;99.90;;;;;;5113768;28;20423;-57
2022/06/26 06:25:09;;;;;;;2.03;1.83;;;21.40;99.90;;;;;;5113509;28;20446;-57
2022/06/26 06:27:37;;;;;;;1.77;1.67;;;21.40;99.90;;;;;;5113744;28;20470;-57
2022/06/26 06:30:06;;;;;;;2.23;2.00;;;21.50;99.90;;;;;;5113495;28;20822;-57
2022/06/26 06:32:34;;;;;;;2.40;2.17;;;21.50;99.90;;;;;;5113732;28;20481;-57
2022/06/26 06:35:01;;;;;;;2.90;2.13;;;21.50;99.90;;;;;;5113231;28;20482;-57
2022/06/26 06:37:28;;;;;;;2.13;1.80;;;21.50;99.90;;;;;;5113578;28;20474;-57
2022/06/26 06:39:55;;;;;;;2.10;2.00;;;21.70;99.90;;;;;;5113069;28;20470;-57
2022/06/26 06:42:24;;;;;;;2.57;1.80;;;21.80;99.90;;;;;;5113606;28;20482;-57
2022/06/26 06:44:51;;;;;;;1.73;1.63;;;21.90;99.90;;;;;;5113100;28;20491;-57
2022/06/26 06:47:18;;;;;;;3.03;2.83;;;22.00;99.90;;;;;;5113207;28;20857;-57
2022/06/26 06:49:46;;;;;;;2.50;2.20;;;22.10;99.90;;;;;;5113284;28;20550;-57
2022/06/26 06:52:13;;;;;;;1.77;1.67;;;22.10;99.90;;;;;;5113112;28;20474;-57
2022/06/26 06:54:40;;;;;;;2.23;1.77;;;22.20;99.90;;;;;;5112991;28;20557;-57
2022/06/26 06:57:07;;;;;;;1.83;1.73;;;22.30;99.90;;;;;;5112894;28;20518;-57
2022/06/26 06:59:36;;;;;;;1.90;1.80;;;22.40;99.90;;;;;;5112894;28;20968;-57
2022/06/26 07:02:03;;;;;;;2.13;2.00;;;22.70;99.90;;;;;;5113126;28;20422;-58
2022/06/26 07:04:31;;;;;;;2.40;2.20;;;23.20;99.90;;;;;;5112968;28;20533;-57
2022/06/26 07:06:58;;;;;;;2.23;1.87;;;23.90;99.90;;;;;;5113233;28;20525;-58
2022/06/26 07:09:25;;;;;;;2.30;2.10;;;24.30;99.90;;;;;;5112996;28;20482;-58
2022/06/26 07:11:53;;;;;;;2.57;1.93;;;24.80;99.90;;;;;;5112700;28;21000;-58
2022/06/26 07:14:20;;;;;;;2.60;2.00;;;25.30;99.90;;;;;;5113250;28;20897;-57
2022/06/26 07:16:49;;;;;;;2.30;2.10;;;25.20;99.90;;;;;;5113046;28;20561;-58
2022/06/26 07:19:16;;;;;;;2.87;2.33;;;25.30;99.90;;;;;;5112774;28;20475;-58
2022/06/26 07:21:44;;;;;;;2.60;2.13;;;25.30;99.90;;;;;;5116495;28;20925;-58
2022/06/26 07:24:11;;;;;;;2.10;1.80;;;25.90;99.90;;;;;;5116551;27;20442;-58
2022/06/26 07:26:39;;;;;;;2.20;2.00;;;26.50;99.90;;;;;;5116231;28;20525;-58
2022/06/26 07:29:07;;;;;;;1.83;1.67;;;27.30;98.70;;;;;;5116766;28;20546;-58
2022/06/26 07:31:34;;;;;;;3.27;1.83;;;27.70;97.70;;;;;;5116318;28;20452;-58
2022/06/26 07:34:16;;;;;;;2.00;1.90;;;27.30;98.00;;;;;;5116376;28;20446;-58
2022/06/26 07:36:45;;;;;;;2.03;1.83;;;27.20;98.70;;;;;;5116226;28;20463;-58
2022/06/26 07:39:14;;;;;;;2.13;1.93;;;27.80;96.60;;;;;;5116465;28;20553;-58
2022/06/26 07:41:41;;;;;;;1.90;1.70;;;28.10;96.30;;;;;;5116462;28;20487;-58
2022/06/26 07:44:08;;;;;;;1.93;1.83;;;28.10;95.70;;;;;;5116524;28;20484;-58
2022/06/26 07:46:36;;;;;;;2.30;2.10;;;;;;;;;;5116159;28;20979;-58
2022/06/26 07:49:06;;;;;;;2.10;1.90;;;28.40;95.50;;;;;;5116023;28;20470;-58
2022/06/26 07:51:37;;;;;;;1.60;1.50;;;28.50;95.00;;;;;;5116359;28;20449;-58
2022/06/26 07:54:05;;;;;;;2.33;1.60;;;29.20;93.90;;;;;;5115950;28;20537;-58
2022/06/26 07:56:33;;;;;;;1.60;1.50;;;28.80;93.20;;;;;;5115885;28;20553;-57
2022/06/26 07:59:00;;;;;;;1.80;1.70;;;28.20;93.90;;;;;;5115846;28;20450;-58
2022/06/26 08:01:27;;;;;;;1.90;1.70;;;28.70;93.70;;;;;;5116118;28;20453;-58
2022/06/26 08:03:54;;;;;;;2.17;2.00;;;28.60;93.70;;;;;;5116099;28;20446;-58
2022/06/26 08:06:23;;;;;;;3.27;2.03;;;29.00;93.10;;;;;;5115519;28;20442;-58
2022/06/26 08:08:50;;;;;;;2.10;1.90;;;29.70;92.30;;;;;;5115946;28;20498;-58
2022/06/26 08:11:18;;;;;;;1.80;1.70;;;30.30;91.60;;;;;;5115508;28;21020;-58
2022/06/26 08:13:46;;;;;;;2.33;2.13;;;29.70;92.00;;;;;;5115464;28;20478;-58
2022/06/26 08:16:13;;;;;;;3.30;1.67;;;30.10;93.10;;;;;;5115711;28;20492;-58
2022/06/26 08:18:41;;;;;;;2.90;1.80;;;30.20;92.10;;;;;;5115849;27;20503;-58
2022/06/26 08:23:55;;;;;;;1.80;1.70;;;29.80;91.50;;;;;;5115473;28;20888;-58
2022/06/26 08:26:22;;;;;;;2.10;1.50;;;30.10;91.70;;;;;;5115514;28;20470;-57
2022/06/26 08:28:49;;;;;;;2.00;1.80;;;30.50;91.10;;;;;;5115008;28;20530;-57
2022/06/26 08:31:17;;;;;;;2.27;1.70;;;30.80;89.60;;;;;;5115446;28;20924;-58
2022/06/26 08:33:44;;;;;;;1.83;1.63;;;30.60;90.60;;;;;;5115389;28;20477;-57
2022/06/26 08:36:11;;;;;;;1.83;1.73;;;30.60;90.60;;;;;;5115400;28;20525;-58
2022/06/26 08:38:40;;;;;;;2.23;1.97;;;30.60;90.30;;;;;;5115417;28;20450;-58
2022/06/26 08:41:10;;;;;;;2.30;1.53;;;30.10;89.30;;;;;;5115238;28;20466;-58
2022/06/26 08:43:41;;;;;;;1.83;1.73;;;30.20;90.70;;;;;;5115396;28;20454;-57
2022/06/26 08:46:08;;;;;;;2.23;1.70;;;30.50;90.40;;;;;;5115062;28;20466;-58
2022/06/26 08:48:43;;;;;;;1.87;1.77;;;30.00;88.40;;;;;;5114879;28;20452;-58
2022/06/26 08:51:11;;;;;;;1.83;1.47;;;29.90;90.70;;;;;;5114931;28;20515;-58
2022/06/26 08:53:40;;;;;;;2.10;1.90;;;;;;;;;;5115000;28;20449;-58
2022/06/26 08:56:09;;;;;;;2.40;2.20;;;31.10;86.50;;;;;;5114716;28;20442;-58
2022/06/26 08:58:36;;;;;;;1.47;1.37;;;30.90;90.60;;;;;;5114922;28;20450;-58
2022/06/26 09:01:05;;;;;;;1.70;1.60;;;31.10;87.00;;;;;;5114652;28;20557;-58
2022/06/26 09:03:33;;;;;;;1.87;1.70;;;30.80;89.00;;;;;;5114500;28;20474;-58
2022/06/26 09:06:01;;;;;;;1.40;1.30;;;31.20;88.80;;;;;;5114628;28;20879;-58
2022/06/26 09:08:29;;;;;;;3.03;1.60;;;30.50;85.40;;;;;;5114737;28;20444;-58
2022/06/26 09:10:57;;;;;;;1.53;1.30;;;30.80;86.30;;;;;;5114444;28;20477;-58
2022/06/26 09:13:37;;;;;;;2.63;2.00;;;31.40;88.20;;;;;;5114167;28;20535;-58
2022/06/26 09:16:05;;;;;;;1.80;1.70;;;30.60;85.20;;;;;;5114747;28;20436;-58
2022/06/26 09:18:35;;;;;;;1.90;1.80;;;31.00;87.70;;;;;;5114151;28;20539;-58
2022/06/26 09:21:05;;;;;;;2.17;1.70;;;31.60;87.30;;;;;;5114820;28;20469;-58
2022/06/26 09:23:32;;;;;;;1.90;1.80;;;31.90;83.20;;;;;;5114490;28;20446;-57
2022/06/26 09:26:00;;;;;;;2.37;1.50;;;31.80;84.50;;;;;;5114499;28;20478;-57
2022/06/26 09:28:29;;;;;;;1.90;1.60;;;32.30;85.40;;;;;;5113951;28;20795;-58
2022/06/26 09:30:57;;;;;;;1.97;1.60;;;32.40;81.40;;;;;;5114081;28;20465;-58
2022/06/26 09:33:27;;;;;;;1.93;1.73;;;31.90;80.90;;;;;;5113978;28;20496;-58
2022/06/26 09:35:55;;;;;;;1.60;1.50;;;32.00;80.40;;;;;;5114345;28;20528;-58
2022/06/26 09:38:24;;;;;;;2.10;1.70;;;31.70;83.50;;;;;;5113766;28;20882;-57
2022/06/26 09:40:53;;;;;;;1.70;1.60;;;32.40;81.30;;;;;;5114215;28;20562;-58
2022/06/26 09:43:30;;;;;;;1.63;1.50;;;32.50;79.00;;;;;;5113823;28;20476;-58
2022/06/26 09:45:58;;;;;;;1.83;1.40;;;32.20;79.10;;;;;;5114286;28;20839;-58
2022/06/26 09:48:25;;;;;;;1.70;1.60;;;32.80;78.50;;;;;;5114026;28;20537;-58
2022/06/26 09:50:53;;;;;;;1.97;1.60;;;32.30;79.20;;;;;;5113691;28;20835;-58
2022/06/26 09:53:22;;;;;;;2.00;1.80;;;32.70;81.40;;;;;;5113648;28;20983;-58
2022/06/26 09:55:50;;;;;;;1.83;1.63;;;33.00;76.80;;;;;;5114140;28;20469;-58
2022/06/26 09:58:19;;;;;;;1.30;1.20;;;33.00;75.10;;;;;;5113852;28;20493;-58
2022/06/26 10:06:28;;;;;;;1.67;1.57;;;32.80;73.90;;;;;;5113765;28;20779;-58
2022/06/26 10:08:57;;;;;;;2.20;2.00;;;32.50;76.60;;;;;;5113867;28;20446;-58
2022/06/26 10:11:27;;;;;;;2.00;1.90;;;32.20;78.70;;;;;;5113590;28;20444;-58
2022/06/26 10:13:58;;;;;;;2.30;1.90;;;32.40;76.00;;;;;;5113371;28;20474;-57
2022/06/26 10:16:54;;;;;;;2.30;1.77;;;31.90;78.80;;;;;;5113864;28;20433;-57
2022/06/26 10:19:28;;;;;;;1.60;1.50;;;32.40;79.10;;;;;;5113459;28;20494;-58
2022/06/26 10:21:56;;;;;;;1.63;1.53;;;32.50;77.80;;;;;;5113429;28;20440;-57
2022/06/26 10:24:23;;;;;;;2.00;1.50;;;32.30;78.70;;;;;;5113514;28;20956;-58
2022/06/26 10:26:55;;;;;;;1.60;1.50;;;32.20;76.30;;;;;;5113708;28;20493;-57
2022/06/26 10:29:33;;;;;;;1.80;1.70;;;32.70;75.20;;;;;;5113343;28;20557;-58
2022/06/26 10:32:02;;;;;;;1.80;1.70;;;31.60;77.70;;;;;;5113873;28;20431;-58
2022/06/26 10:34:29;;;;;;;1.57;1.47;;;32.00;77.40;;;;;;5113696;28;20446;-58
2022/06/26 10:37:05;;;;;;;1.67;1.57;;;32.10;77.10;;;;;;5113530;28;20546;-58
2022/06/26 10:39:46;;;;;;;1.90;1.80;;;32.40;79.60;;;;;;5113314;28;20541;-58
2022/06/26 10:45:07;;;;;;;1.63;1.53;;;32.60;75.10;;;;;;5113505;28;20433;-57
2022/06/26 10:47:45;;;;;;;2.40;1.60;;;32.50;75.40;;;;;;5113182;28;20794;-58
2022/06/26 10:50:40;;;;;;;2.10;1.90;;;32.90;74.40;;;;;;5113583;28;20458;-58
2022/06/26 10:53:16;;;;;;;1.60;1.50;;;32.30;76.10;;;;;;5077369;28;20446;-58
2022/06/26 10:55:45;;;;;;;3.77;1.53;;;32.20;77.50;;;;;;5115701;28;20421;-58
2022/06/26 10:58:19;;;;;;;2.13;1.93;;;31.80;75.80;;;;;;5117273;28;20485;-58
2022/06/26 11:00:47;;;;;;;2.20;1.87;;;31.20;77.70;;;;;;5116967;28;20461;-58
2022/06/26 11:03:17;;;;;;;1.73;1.63;;;31.10;77.10;;;;;;5117113;28;20925;-58
2022/06/26 11:05:55;;;;;;;3.57;1.90;;;30.70;78.90;;;;;;5116909;28;20537;-57
2022/06/26 11:08:27;;;;;;;2.37;1.90;;;30.40;79.80;;;;;;5117245;28;20860;-57
2022/06/26 11:10:59;;;;;;;2.80;1.70;;;30.20;81.20;;;;;;5117002;28;20462;-58
2022/06/26 11:13:27;;;;;;;1.93;1.83;;;30.20;78.70;;;;;;5115433;28;20513;-58
2022/06/26 11:15:54;;;;;;;2.17;1.50;;;29.70;80.10;;;;;;5116864;28;20478;-58
2022/06/26 11:18:23;;;;;;;2.70;1.53;;;29.80;82.10;;;;;;5116952;28;20562;-57
2022/06/26 11:20:53;;;;;;;2.30;1.87;;;29.70;80.40;;;;;;5116667;28;20462;-57
2022/06/26 11:23:23;;;;;;;2.70;1.87;;;29.30;81.20;;;;;;5116863;28;20438;-58
2022/06/26 11:25:51;;;;;;;2.20;2.00;;;28.90;82.50;;;;;;5116640;28;20953;-57
2022/06/26 11:28:18;;;;;;;2.53;1.77;;;29.00;83.70;;;;;;5116346;28;20478;-58
2022/06/26 11:30:48;;;;;;;1.87;1.60;;;29.10;83.90;;;;;;5116574;28;21055;-57
2022/06/26 11:33:25;;;;;;;2.03;1.83;;;29.50;84.60;;;;;;5116726;28;20516;-58
2022/06/26 11:35:53;;;;;;;2.07;1.70;;;29.60;83.00;;;;;;5116562;28;20436;-58
2022/06/26 11:38:21;;;;;;;1.53;1.43;;;29.60;82.90;;;;;;5116481;28;20482;-58
2022/06/26 11:40:50;;;;;;;1.97;1.80;;;29.60;83.70;;;;;;5116542;28;20462;-58
2022/06/26 11:43:19;;;;;;;1.70;1.60;;;29.20;85.40;;;;;;5116566;28;20590;-58
2022/06/26 11:45:46;;;;;;;2.03;1.77;;;29.70;84.90;;;;;;5116246;28;20453;-57
2022/06/26 11:48:17;;;;;;;1.90;1.80;;;29.90;85.20;;;;;;5116443;28;20474;-57
2022/06/26 11:50:47;;;;;;;1.97;1.73;;;29.90;84.90;;;;;;5116127;28;20965;-58
2022/06/26 11:53:23;;;;;;;1.80;1.70;;;30.80;85.10;;;;;;5116665;28;20454;-58
2022/06/26 11:55:51;;;;;;;2.37;1.43;;;31.40;82.80;;;;;;5116057;28;20489;-58
2022/06/26 11:58:21;;;;;;;2.17;1.97;;;31.00;80.90;;;;;;5115695;28;20480;-57
2022/06/26 12:00:48;;;;;;;2.03;1.93;;;30.60;80.90;;;;;;5115935;28;20464;-57
2022/06/26 12:03:16;;;;;;;2.13;1.80;;;30.40;80.90;;;;;;5116253;27;20446;-57
2022/06/26 12:05:46;;;;;;;2.27;2.07;;;30.80;79.50;;;;;;5115626;28;20438;-58
2022/06/26 12:08:18;;;;;;;2.33;1.70;;;31.20;79.10;;;;;;5115903;28;20415;-57
2022/06/26 12:10:50;;;;;;;1.97;1.70;;;31.50;79.60;;;;;;5115968;28;20865;-57
2022/06/26 12:13:25;;;;;;;2.00;1.90;;;32.00;77.10;;;;;;5115664;28;20482;-57
2022/06/26 12:15:53;;;;;;;1.80;1.70;;;31.60;79.50;;;;;;5115946;28;20806;-58
2022/06/26 12:18:20;;;;;;;1.83;1.67;;;31.90;78.80;;;;;;5115621;28;21014;-58
2022/06/26 12:20:52;;;;;;;2.33;1.83;;;32.30;78.50;;;;;;5115409;28;20469;-58
2022/06/26 12:23:29;;;;;;;1.93;1.83;;;32.10;80.10;;;;;;5115838;28;20789;-58
2022/06/26 12:26:06;;;;;;;1.70;1.60;;;32.50;76.80;;;;;;5115384;28;20980;-58
2022/06/26 12:28:34;;;;;;;1.70;1.60;;;32.40;73.40;;;;;;5115807;28;20431;-59
2022/06/26 12:31:01;;;;;;;1.83;1.73;;;32.20;75.80;;;;;;5115302;28;20550;-58
2022/06/26 12:33:28;;;;;;;1.63;1.53;;;31.60;74.70;;;;;;5115365;28;20545;-58
2022/06/26 12:35:57;;;;;;;1.63;1.53;;;32.00;77.00;;;;;;5115551;28;20529;-58
2022/06/26 12:38:27;;;;;;;1.73;1.63;;;32.10;75.60;;;;;;5115522;28;20485;-58
2022/06/26 12:40:55;;;;;;;1.70;1.60;;;32.30;73.80;;;;;;5115323;28;20554;-59
2022/06/26 12:43:23;;;;;;;2.13;1.93;;;32.90;72.90;;;;;;5115532;28;20450;-59
2022/06/26 12:45:50;;;;;;;1.60;1.50;;;32.70;73.10;;;;;;5115128;28;20484;-58
2022/06/26 12:48:17;;;;;;;2.07;1.50;;;32.50;73.10;;;;;;5115168;27;20439;-58
2022/06/26 12:50:45;;;;;;;2.10;1.80;;;32.80;71.30;;;;;;5114877;28;20981;-58
2022/06/26 12:53:13;;;;;;;1.70;1.60;;;33.00;72.10;;;;;;5115058;28;20427;-58
2022/06/26 12:55:42;;;;;;;2.90;1.80;;;33.00;73.60;;;;;;5114756;28;20565;-58
2022/06/26 12:58:09;;;;;;;1.67;1.57;;;32.50;73.00;;;;;;5114765;28;20470;-58
2022/06/26 13:00:37;;;;;;;1.87;1.77;;;32.30;73.20;;;;;;5114693;28;20969;-58
2022/06/26 13:03:04;;;;;;;1.60;1.50;;;32.50;71.70;;;;;;5115122;28;20447;-58
2022/06/26 13:05:31;;;;;;;1.90;1.70;;;32.20;73.20;;;;;;5115006;28;20537;-58
2022/06/26 13:07:58;;;;;;;1.97;1.77;;;32.00;75.00;;;;;;5115031;28;20455;-58
2022/06/26 13:10:27;;;;;;;2.07;1.90;;;32.30;75.60;;;;;;5114716;28;20511;-58
2022/06/26 13:12:54;;;;;;;1.57;1.47;;;32.10;74.70;;;;;;5114303;28;20486;-58